Time;durP1;ratioP1;P1;durP2;ratioP2;P2;SDS_P1;SDS_P2;PMS_P1;PMS_P2;Temp;Humidity;BMP_temperature;BMP_pressure;BME280_temperature;BME280_humidity;BME280_pressure;Samples;Min_cycle;Max_cycle;Signal;HPM_P1;HPM_P2
2023/07/16 00:02:23;;;;;;;3.60;1.58;;;;;;;;;;5107495;28;20024;-61
2023/07/16 00:04:50;;;;;;;2.05;1.00;;;;;;;;;;5108161;28;20027;-61
2023/07/16 00:07:17;;;;;;;1.38;0.82;;;;;;;;;;5110752;28;20034;-61
2023/07/16 00:09:44;;;;;;;8.90;1.58;;;;;;;;;;5113199;28;21426;-61
2023/07/16 00:12:11;;;;;;;1.45;0.98;;;;;;;;;;5113096;28;20081;-61
2023/07/16 00:14:38;;;;;;;1.67;0.98;;;;;;;;;;5113153;28;20024;-61
2023/07/16 00:17:05;;;;;;;2.63;1.23;;;;;;;;;;5112947;28;20027;-60
2023/07/16 00:19:31;;;;;;;2.47;1.20;;;;;;;;;;5109089;28;20027;-61
2023/07/16 00:21:58;;;;;;;1.40;0.93;;;;;;;;;;5107528;28;20497;-61
2023/07/16 00:24:25;;;;;;;2.00;0.80;;;;;;;;;;5107489;28;20024;-61
2023/07/16 00:26:52;;;;;;;4.60;1.60;;;;;;;;;;5107483;28;20110;-61
2023/07/16 00:29:18;;;;;;;5.18;1.23;;;;;;;;;;5110231;28;20535;-61
2023/07/16 00:31:46;;;;;;;3.17;1.23;;;;;;;;;;5112654;28;20095;-61
2023/07/16 00:34:13;;;;;;;4.53;1.33;;;;;;;;;;5112883;28;20470;-61
2023/07/16 00:36:39;;;;;;;1.50;0.80;;;;;;;;;;5112131;28;20035;-61
2023/07/16 00:39:06;;;;;;;3.30;0.85;;;;;;;;;;5113055;28;20640;-61
2023/07/16 00:41:33;;;;;;;2.25;1.10;;;;;;;;;;5109423;28;20027;-61
2023/07/16 00:44:00;;;;;;;5.63;1.45;;;;;;;;;;5107486;28;20466;-60
2023/07/16 00:46:27;;;;;;;1.13;0.68;;;;;;;;;;5106853;28;20457;-61
2023/07/16 00:48:54;;;;;;;3.25;0.85;;;;;;;;;;5107428;28;20023;-61
2023/07/16 00:51:22;;;;;;;7.80;1.15;;;;;;;;;;5109596;28;20482;-60
2023/07/16 00:53:49;;;;;;;4.75;1.05;;;;;;;;;;5110940;28;20039;-61
2023/07/16 00:56:17;;;;;;;2.65;1.20;;;;;;;;;;5111943;28;20032;-60
2023/07/16 00:58:44;;;;;;;6.03;0.80;;;;;;;;;;5112301;28;20565;-60
2023/07/16 01:01:11;;;;;;;11.52;1.40;;;;;;;;;;5115277;28;20103;-60
2023/07/16 01:03:38;;;;;;;2.92;1.15;;;;;;;;;;5114407;28;20389;-61
2023/07/16 01:06:08;;;;;;;2.45;1.05;;;;;;;;;;5111336;28;20042;-61
2023/07/16 01:08:47;;;;;;;4.43;1.10;;;;;;;;;;5111390;28;20035;-60
2023/07/16 01:11:15;;;;;;;1.30;0.85;;;;;;;;;;5111083;28;20040;-61
2023/07/16 01:13:42;;;;;;;17.48;1.50;;;;;;;;;;5113281;28;20470;-60
2023/07/16 01:16:19;;;;;;;6.55;1.35;;;;;;;;;;5116251;28;20165;-60
2023/07/16 01:18:46;;;;;;;10.73;1.48;;;;;;;;;;5116592;28;20039;-60
2023/07/16 01:21:13;;;;;;;1.42;0.80;;;;;;;;;;5116101;28;20024;-60
2023/07/16 01:24:01;;;;;;;3.42;1.10;;;;;;;;;;5115764;28;20032;-60
2023/07/16 01:26:46;;;;;;;7.23;1.30;;;;;;;;;;5112030;28;20031;-60
2023/07/16 01:29:12;;;;;;;;;;;;;;;;;;5111189;28;20359;-61
2023/07/16 01:31:40;;;;;;;14.83;1.77;;;;;;;;;;5109243;28;19908;-60
2023/07/16 01:34:07;;;;;;;14.77;1.43;;;;;;;;;;5110855;28;20032;-61
2023/07/16 01:36:35;;;;;;;5.50;1.50;;;;;;;;;;5113232;28;20035;-60
2023/07/16 01:39:02;;;;;;;4.53;1.87;;;;;;;;;;5115644;28;20377;-62
2023/07/16 01:41:29;;;;;;;22.13;1.97;;;;;;;;;;5114668;28;20080;-61
2023/07/16 01:43:55;;;;;;;9.50;2.10;;;;;;;;;;5115973;28;20028;-60
2023/07/16 01:46:22;;;;;;;6.43;2.10;;;;;;;;;;5115544;28;20109;-61
2023/07/16 01:48:49;;;;;;;3.63;1.83;;;;;;;;;;5112393;28;20080;-61
2023/07/16 01:51:16;;;;;;;4.13;1.87;;;;;;;;;;5110741;28;20019;-60
2023/07/16 01:53:43;;;;;;;11.23;1.60;;;;;;;;;;5110209;28;20036;-60
2023/07/16 01:56:09;;;;;;;2.33;1.20;;;;;;;;;;5109920;28;20020;-60
2023/07/16 01:58:36;;;;;;;2.90;1.00;;;;;;;;;;5113115;28;20058;-61
2023/07/16 02:01:03;;;;;;;3.63;1.53;;;;;;;;;;5115554;28;20034;-60
2023/07/16 02:03:30;;;;;;;2.50;1.00;;;;;;;;;;5115693;28;20027;-60
2023/07/16 02:05:57;;;;;;;7.37;1.20;;;;;;;;;;5114721;28;20116;-61
2023/07/16 02:08:23;;;;;;;1.90;1.13;;;;;;;;;;5115058;28;20024;-60
2023/07/16 02:10:50;;;;;;;21.67;2.03;;;;;;;;;;5112542;28;20027;-60
2023/07/16 02:13:17;;;;;;;5.00;1.17;;;;;;;;;;5109221;28;20464;-60
2023/07/16 02:15:44;;;;;;;1.00;0.60;;;;;;;;;;5109134;28;20039;-61
2023/07/16 02:18:11;;;;;;;6.83;1.20;;;;;;;;;;5108014;28;20032;-60
2023/07/16 02:20:38;;;;;;;2.90;1.23;;;;;;;;;;5110239;28;20024;-60
2023/07/16 02:23:04;;;;;;;1.30;0.87;;;;;;;;;;5112344;28;20039;-60
2023/07/16 02:25:33;;;;;;;5.67;2.10;;;;;;;;;;5113366;28;20047;-60
2023/07/16 02:27:59;;;;;;;2.43;1.27;;;;;;;;;;5114758;28;20054;-60
2023/07/16 02:30:26;;;;;;;1.63;0.83;;;;;;;;;;5114885;28;20020;-60
2023/07/16 02:32:53;;;;;;;2.67;1.00;;;;;;;;;;5111782;28;20028;-60
2023/07/16 02:35:20;;;;;;;12.77;1.67;;;;;;;;;;5109524;28;20739;-60
2023/07/16 02:37:46;;;;;;;1.10;0.83;;;;;;;;;;5108951;28;20097;-60
2023/07/16 02:40:13;;;;;;;2.33;1.00;;;;;;;;;;5109353;28;20031;-60
2023/07/16 02:42:40;;;;;;;3.57;1.27;;;;;;;;;;5110911;28;20435;-60
2023/07/16 02:45:07;;;;;;;5.10;1.13;;;;;;;;;;5114980;28;20469;-60
2023/07/16 02:47:34;;;;;;;2.03;1.07;;;;;;;;;;5114464;28;20034;-60
2023/07/16 02:50:01;;;;;;;0.93;0.70;;;;;;;;;;5114882;28;20098;-60
2023/07/16 02:52:27;;;;;;;2.47;1.07;;;;;;;;;;5114265;28;20359;-60
2023/07/16 02:54:54;;;;;;;3.07;1.27;;;;;;;;;;5112214;28;20024;-61
2023/07/16 02:57:22;;;;;;;2.67;1.07;;;;;;;;;;5109035;28;20031;-60
2023/07/16 02:59:49;;;;;;;6.37;1.80;;;;;;;;;;5108258;27;20489;-61
2023/07/16 03:02:16;;;;;;;3.00;1.33;;;;;;;;;;5107823;28;20466;-61
2023/07/16 03:04:43;;;;;;;5.83;2.10;;;;;;;;;;5109265;28;20026;-61
2023/07/16 03:07:10;;;;;;;2.43;1.33;;;;;;;;;;5114013;28;20067;-61
2023/07/16 03:09:36;;;;;;;2.80;1.20;;;;;;;;;;5128787;27;20034;-61
2023/07/16 03:12:03;;;;;;;2.57;1.43;;;;;;;;;;5132696;27;20015;-62
2023/07/16 03:14:30;;;;;;;9.30;1.60;;;;;;;;;;5113933;28;20023;-61
2023/07/16 03:16:57;;;;;;;3.70;1.67;;;;;;;;;;5118045;27;20052;-61
2023/07/16 03:19:24;;;;;;;19.13;1.70;;;;;;;;;;5129404;27;20473;-61
2023/07/16 03:21:50;;;;;;;7.37;2.03;;;;;;;;;;5120659;27;20019;-61
2023/07/16 03:24:17;;;;;;;8.63;1.63;;;;;;;;;;5107927;28;20047;-60
2023/07/16 03:26:44;;;;;;;3.40;1.03;;;;;;;;;;5108506;28;20132;-60
2023/07/16 03:29:11;;;;;;;3.53;1.67;;;;;;;;;;5112993;28;20026;-60
2023/07/16 03:31:38;;;;;;;3.30;1.33;;;;;;;;;;5113301;28;20027;-59
2023/07/16 03:34:05;;;;;;;5.10;1.93;;;;;;;;;;5113598;28;20029;-60
2023/07/16 03:36:32;;;;;;;9.37;1.67;;;;;;;;;;5113667;28;20033;-59
2023/07/16 03:38:58;;;;;;;2.77;1.30;;;;;;;;;;5099729;27;20090;-60
2023/07/16 03:41:25;;;;;;;2.97;1.70;;;;;;;;;;5120735;27;20317;-60
2023/07/16 03:43:52;;;;;;;3.50;1.60;;;;;;;;;;5113242;27;20639;-59
2023/07/16 03:46:19;;;;;;;3.87;1.23;;;;;;;;;;5108488;28;20032;-60
2023/07/16 03:48:46;;;;;;;3.23;1.43;;;;;;;;;;5115410;27;20107;-60
2023/07/16 03:51:12;;;;;;;2.43;1.10;;;;;;;;;;5112572;28;20026;-59
2023/07/16 03:53:39;;;;;;;2.73;1.17;;;;;;;;;;5112661;28;20500;-60
2023/07/16 03:56:06;;;;;;;4.70;1.83;;;;;;;;;;5118113;27;20500;-59
2023/07/16 03:58:33;;;;;;;7.20;1.37;;;;;;;;;;5112291;28;20023;-59
2023/07/16 04:01:00;;;;;;;2.50;1.27;;;;;;;;;;5113004;28;20073;-60
2023/07/16 04:03:26;;;;;;;4.67;1.67;;;;;;;;;;5108413;28;20031;-59
2023/07/16 04:06:01;;;;;;;3.60;1.67;;;;;;;;;;5106302;28;20042;-59
2023/07/16 04:08:28;;;;;;;2.03;0.85;;;;;;;;;;5107738;28;20039;-59
2023/07/16 04:10:55;;;;;;;1.60;0.93;;;;;;;;;;5107907;28;20059;-59
2023/07/16 04:13:21;;;;;;;14.43;1.67;;;;;;;;;;5111007;28;20031;-59
2023/07/16 04:15:48;;;;;;;4.00;1.97;;;;;;;;;;5112433;28;20059;-59
2023/07/16 04:18:15;;;;;;;10.33;1.33;;;;;;;;;;5112751;28;20027;-59
2023/07/16 04:20:42;;;;;;;1.77;1.27;;;;;;;;;;5111252;28;20023;-59
2023/07/16 04:23:12;;;;;;;3.10;1.33;;;;;;;;;;5112592;28;20076;-59
2023/07/16 04:25:39;;;;;;;4.30;1.40;;;;;;;;;;5108184;28;20024;-59
2023/07/16 04:28:06;;;;;;;2.77;1.43;;;;;;;;;;5107510;28;20020;-59
2023/07/16 04:30:32;;;;;;;3.70;1.27;;;;;;;;;;5106288;28;20027;-59
2023/07/16 04:32:59;;;;;;;4.90;1.50;;;;;;;;;;5106741;28;20478;-59
2023/07/16 04:35:26;;;;;;;1.93;1.00;;;;;;;;;;5109952;28;20160;-59
2023/07/16 04:37:53;;;;;;;1.53;1.13;;;;;;;;;;5112158;28;20050;-59
2023/07/16 04:40:20;;;;;;;7.07;1.47;;;;;;;;;;5112373;28;20031;-59
2023/07/16 04:42:46;;;;;;;4.60;1.50;;;;;;;;;;5112985;28;20103;-59
2023/07/16 04:45:14;;;;;;;3.17;1.83;;;;;;;;;;5112428;28;20028;-59
2023/07/16 04:47:40;;;;;;;2.30;1.27;;;;;;;;;;5108771;28;20055;-59
2023/07/16 04:50:07;;;;;;;12.00;1.57;;;;;;;;;;5107307;28;20015;-59
2023/07/16 04:52:34;;;;;;;6.33;1.60;;;;;;;;;;5107132;28;20035;-59
2023/07/16 04:55:01;;;;;;;4.20;1.97;;;;;;;;;;5107001;28;20042;-59
2023/07/16 04:57:28;;;;;;;3.47;1.83;;;;;;;;;;5109424;28;20019;-59
2023/07/16 04:59:54;;;;;;;3.30;1.87;;;;;;;;;;5111560;28;20081;-60
2023/07/16 05:02:21;;;;;;;15.47;2.87;;;;;;;;;;5112091;28;20015;-59
2023/07/16 05:04:48;;;;;;;4.67;2.23;;;;;;;;;;5112341;28;20047;-59
2023/07/16 05:07:15;;;;;;;3.97;2.13;;;;;;;;;;5112332;28;20445;-59
2023/07/16 05:09:43;;;;;;;5.13;1.83;;;;;;;;;;5109434;28;20067;-60
2023/07/16 05:12:10;;;;;;;5.13;2.07;;;;;;;;;;5106775;28;20449;-59
2023/07/16 05:14:47;;;;;;;17.80;2.50;;;;;;;;;;5106748;28;20020;-59
2023/07/16 05:17:14;;;;;;;21.27;2.90;;;;;;;;;;5107331;28;20026;-59
2023/07/16 05:19:41;;;;;;;6.53;2.37;;;;;;;;;;5109425;28;20028;-59
2023/07/16 05:22:08;;;;;;;9.77;3.10;;;;;;;;;;5112420;28;20016;-59
2023/07/16 05:24:35;;;;;;;29.87;2.87;;;;;;;;;;5112060;28;20375;-59
2023/07/16 05:27:02;;;;;;;8.57;2.57;;;;;;;;;;5111926;28;20020;-59
2023/07/16 05:29:28;;;;;;;14.27;2.03;;;;;;;;;;5112208;28;20458;-59
2023/07/16 05:31:55;;;;;;;8.37;3.00;;;;;;;;;;5109466;28;20111;-59
2023/07/16 05:34:22;;;;;;;3.77;2.10;;;;;;;;;;5106183;28;20432;-59
2023/07/16 05:36:49;;;;;;;8.07;2.20;;;;;;;;;;5106941;28;20024;-59
2023/07/16 05:39:15;;;;;;;39.67;3.70;;;;;;;;;;5106573;28;20032;-59
2023/07/16 05:41:42;;;;;;;18.23;3.23;;;;;;;;;;5107222;28;20114;-59
2023/07/16 05:44:09;;;;;;;12.33;2.23;;;;;;;;;;5110137;28;20027;-59
2023/07/16 05:46:36;;;;;;;5.40;2.70;;;;;;;;;;5111420;28;20062;-59
2023/07/16 05:49:03;;;;;;;4.40;1.57;;;;;;;;;;5112720;28;20405;-58
2023/07/16 05:51:30;;;;;;;8.03;2.57;;;;;;;;;;5113856;28;20028;-60
2023/07/16 05:53:57;;;;;;;7.30;2.80;;;;;;;;;;5112205;28;20031;-59
2023/07/16 05:56:24;;;;;;;3.13;1.93;;;;;;;;;;5110313;28;20053;-59
2023/07/16 05:58:50;;;;;;;12.20;2.20;;;;;;;;;;5109446;28;20027;-59
2023/07/16 06:01:17;;;;;;;5.83;2.67;;;;;;;;;;5107259;28;20045;-59
2023/07/16 06:03:44;;;;;;;10.87;1.90;;;;;;;;;;5111236;28;20027;-59
2023/07/16 06:06:11;;;;;;;4.00;1.73;;;;;;;;;;5115644;28;20406;-59
2023/07/16 06:08:38;;;;;;;6.47;2.37;;;;;;;;;;5115760;28;20424;-60
2023/07/16 06:11:05;;;;;;;4.20;1.97;;;;;;;;;;5115737;28;20370;-59
2023/07/16 06:13:32;;;;;;;10.50;3.30;;;;;;;;;;5115494;28;20035;-59
2023/07/16 06:15:59;;;;;;;6.60;2.07;;;;;;;;;;5114103;28;20028;-59
2023/07/16 06:18:25;;;;;;;4.83;2.17;;;;;;;;;;5109780;28;20466;-59
2023/07/16 06:20:54;;;;;;;4.70;1.60;;;;;;;;;;5110123;28;20474;-59
2023/07/16 06:23:21;;;;;;;1.50;1.23;;;;;;;;;;5109902;28;20033;-59
2023/07/16 06:25:49;;;;;;;6.43;2.37;;;;;;;;;;5092516;28;20057;-59
2023/07/16 06:28:16;;;;;;;2.67;1.60;;;;;;;;;;5114988;28;20028;-59
2023/07/16 06:30:43;;;;;;;3.77;1.87;;;;;;;;;;5115283;28;20107;-59
2023/07/16 06:33:09;;;;;;;8.53;2.70;;;;;;;;;;5115169;28;20027;-59
2023/07/16 06:35:36;;;;;;;3.43;2.17;;;;;;;;;;5114597;28;20098;-59
2023/07/16 06:38:04;;;;;;;3.07;1.93;;;;;;;;;;5114266;28;20016;-59
2023/07/16 06:40:31;;;;;;;6.20;1.77;;;;;;;;;;5109293;28;20023;-59
2023/07/16 06:42:58;;;;;;;9.67;1.83;;;;;;;;;;5109564;28;20031;-59
2023/07/16 06:45:24;;;;;;;11.00;2.17;;;;;;;;;;5109517;28;20424;-59
2023/07/16 06:47:51;;;;;;;4.87;2.03;;;;;;;;;;5109380;28;20024;-59
2023/07/16 06:50:18;;;;;;;9.03;1.63;;;;;;;;;;5114897;28;20023;-59
2023/07/16 06:52:45;;;;;;;5.07;2.37;;;;;;;;;;5114386;28;20024;-59
2023/07/16 06:55:11;;;;;;;2.37;1.57;;;;;;;;;;5114919;28;20019;-59
2023/07/16 06:57:39;;;;;;;13.73;1.93;;;;;;;;;;5114028;28;20409;-58
2023/07/16 07:00:10;;;;;;;1.83;1.50;;;;;;;;;;5114428;28;20090;-59
2023/07/16 07:02:37;;;;;;;3.13;1.57;;;;;;;;;;5109197;28;20035;-59
2023/07/16 07:05:04;;;;;;;10.20;2.13;;;;;;;;;;5109135;28;20427;-59
2023/07/16 07:07:31;;;;;;;3.37;1.93;;;;;;;;;;5108599;28;20106;-59
2023/07/16 07:09:58;;;;;;;3.50;1.87;;;;;;;;;;5109084;28;20085;-59
2023/07/16 07:12:24;;;;;;;2.40;1.40;;;;;;;;;;5114016;28;20445;-59
2023/07/16 07:14:51;;;;;;;3.77;1.57;;;;;;;;;;5114140;28;20122;-58
2023/07/16 07:17:18;;;;;;;3.03;1.33;;;;;;;;;;5114435;28;20081;-59
2023/07/16 07:19:45;;;;;;;9.13;2.63;;;;;;;;;;5114261;28;20385;-59
2023/07/16 07:22:12;;;;;;;2.30;1.70;;;;;;;;;;5114303;28;20463;-58
2023/07/16 07:24:38;;;;;;;1.00;0.73;;;;;;;;;;5108427;28;20027;-59
2023/07/16 07:27:05;;;;;;;3.00;1.27;;;;;;;;;;5108594;28;20023;-58
2023/07/16 07:29:32;;;;;;;5.60;1.77;;;;;;;;;;5109661;28;20514;-59
2023/07/16 07:32:00;;;;;;;5.57;2.37;;;;;;;;;;5108284;28;20054;-59
2023/07/16 07:34:26;;;;;;;8.00;1.93;;;;;;;;;;5112970;28;20110;-59
2023/07/16 07:36:53;;;;;;;26.63;2.10;;;;;;;;;;5113893;28;20047;-59
2023/07/16 07:39:20;;;;;;;3.00;1.70;;;;;;;;;;5113986;28;20031;-59
2023/07/16 07:41:47;;;;;;;2.67;1.30;;;;;;;;;;5113451;28;20072;-59
2023/07/16 07:44:13;;;;;;;2.93;1.83;;;;;;;;;;5113861;28;20020;-58
2023/07/16 07:46:40;;;;;;;4.30;1.77;;;;;;;;;;5108695;28;20445;-59
2023/07/16 07:49:07;;;;;;;3.97;1.77;;;;;;;;;;5108312;28;20051;-58
2023/07/16 07:51:33;;;;;;;2.73;1.10;;;;;;;;;;5108247;28;20030;-58
2023/07/16 07:54:01;;;;;;;2.60;1.60;;;;;;;;;;5108019;28;20038;-59
2023/07/16 07:56:27;;;;;;;5.97;1.67;;;;;;;;;;5112072;28;20169;-58
2023/07/16 07:58:54;;;;;;;1.97;1.57;;;;;;;;;;5112991;28;20024;-59
2023/07/16 08:01:21;;;;;;;3.83;1.43;;;;;;;;;;5113530;28;20034;-58
2023/07/16 08:03:48;;;;;;;6.77;2.00;;;;;;;;;;5113360;28;20023;-58
2023/07/16 08:06:14;;;;;;;2.27;1.40;;;;;;;;;;5113406;28;20366;-58
2023/07/16 08:08:41;;;;;;;1.53;1.17;;;;;;;;;;5109186;28;20485;-58
2023/07/16 08:11:08;;;;;;;9.73;2.23;;;;;;;;;;5107110;28;20020;-59
2023/07/16 08:13:35;;;;;;;5.27;1.50;;;;;;;;;;5107625;28;20118;-59
2023/07/16 08:16:02;;;;;;;3.23;1.00;;;;;;;;;;5107291;28;20031;-59
2023/07/16 08:18:29;;;;;;;2.03;1.47;;;;;;;;;;5111056;28;20080;-59
2023/07/16 08:20:56;;;;;;;3.37;1.40;;;;;;;;;;5113180;28;20024;-58
2023/07/16 08:23:22;;;;;;;2.63;1.37;;;;;;;;;;5112769;28;20027;-58
2023/07/16 08:25:51;;;;;;;11.77;1.07;;;;;;;;;;5113114;28;20094;-58
2023/07/16 08:28:18;;;;;;;9.37;2.00;;;;;;;;;;5112749;28;20032;-59
2023/07/16 08:30:47;;;;;;;1.37;1.13;;;;;;;;;;5109206;28;20035;-58
2023/07/16 08:33:15;;;;;;;16.53;1.87;;;;;;;;;;5107445;28;20046;-59
2023/07/16 08:35:42;;;;;;;10.87;2.20;;;;;;;;;;5107389;28;20382;-58
2023/07/16 08:38:12;;;;;;;1.93;1.27;;;;;;;;;;5107506;28;20028;-58
2023/07/16 08:40:39;;;;;;;4.90;2.13;;;;;;;;;;5110361;28;20027;-58
2023/07/16 08:43:11;;;;;;;1.67;1.10;;;;;;;;;;5112694;28;20390;-58
2023/07/16 08:45:44;;;;;;;3.00;1.23;;;;;;;;;;5112360;28;20123;-58
2023/07/16 08:48:11;;;;;;;9.00;1.20;;;;;;;;;;5112668;28;20043;-59
2023/07/16 08:50:38;;;;;;;7.50;1.67;;;;;;;;;;5112951;28;20576;-59
2023/07/16 08:53:06;;;;;;;2.40;1.30;;;;;;;;;;5109056;28;20039;-59
2023/07/16 08:55:33;;;;;;;1.87;1.40;;;;;;;;;;5107089;28;20386;-58
2023/07/16 08:58:00;;;;;;;1.63;1.00;;;;;;;;;;5107045;28;20466;-58
2023/07/16 09:00:27;;;;;;;3.70;1.67;;;;;;;;;;5106998;28;20024;-59
2023/07/16 09:02:54;;;;;;;3.30;1.70;;;;;;;;;;5110056;28;20031;-58
2023/07/16 09:05:21;;;;;;;4.07;2.30;;;;;;;;;;5112513;28;20132;-58
2023/07/16 09:07:48;;;;;;;3.57;2.40;;;;;;;;;;5112585;28;20027;-58
2023/07/16 09:10:15;;;;;;;5.03;2.43;;;;;;;;;;5112526;28;20028;-58
2023/07/16 09:12:51;;;;;;;8.00;2.77;;;;;;;;;;5112461;28;20038;-59
2023/07/16 09:15:19;;;;;;;4.67;2.40;;;;;;;;;;5108510;28;20020;-59
2023/07/16 09:17:49;;;;;;;23.53;2.93;;;;;;;;;;5106957;28;20030;-58
2023/07/16 09:20:17;;;;;;;3.80;2.53;;;;;;;;;;5106926;28;20023;-58
2023/07/16 09:22:44;;;;;;;5.20;2.60;;;;;;;;;;5111139;28;20103;-58
2023/07/16 09:25:11;;;;;;;9.17;4.00;;;;;;;;;;5113977;28;20028;-58
2023/07/16 09:27:38;;;;;;;8.40;3.33;;;;;;;;;;5116048;28;20028;-59
2023/07/16 09:30:15;;;;;;;6.67;3.47;;;;;;;;;;5116417;28;20028;-59
2023/07/16 09:32:42;;;;;;;3.47;2.90;;;;;;;;;;5116373;28;20102;-58
2023/07/16 09:35:12;;;;;;;4.33;3.17;;;;;;;;;;5116356;28;20088;-58
2023/07/16 09:37:39;;;;;;;25.63;3.47;;;;;;;;;;5112963;28;20027;-58
2023/07/16 09:40:09;;;;;;;8.40;2.50;;;;;;;;;;5110790;28;20023;-58
2023/07/16 09:42:43;;;;;;;6.20;3.40;;;;;;;;;;5110686;28;20025;-58
2023/07/16 09:45:17;;;;;;;4.03;2.50;;;;;;;;;;5110713;28;20031;-58
2023/07/16 09:47:45;;;;;;;12.32;4.07;;;;;;;;;;5114155;28;20031;-58
2023/07/16 09:50:12;;;;;;;7.73;3.37;;;;;;;;;;5115830;28;20055;-58
2023/07/16 09:52:42;;;;;;;10.87;3.60;;;;;;;;;;5115858;28;20110;-58
2023/07/16 09:55:10;;;;;;;4.17;2.77;;;;;;;;;;5115789;28;20058;-58
2023/07/16 09:57:39;;;;;;;8.87;3.33;;;;;;;;;;5115268;28;20088;-58
2023/07/16 10:00:13;;;;;;;3.73;2.77;;;;;;;;;;5111753;28;20032;-58
2023/07/16 10:02:41;;;;;;;21.73;3.63;;;;;;;;;;5110383;28;20027;-58
2023/07/16 10:05:26;;;;;;;4.27;3.27;;;;;;;;;;5110303;28;20024;-58
2023/07/16 10:07:55;;;;;;;7.83;3.13;;;;;;;;;;5109494;28;20416;-58
2023/07/16 10:10:22;;;;;;;11.30;3.87;;;;;;;;;;5114198;28;20038;-58
2023/07/16 10:12:59;;;;;;;16.47;3.23;;;;;;;;;;5115658;28;20035;-58
2023/07/16 10:15:29;;;;;;;4.40;2.97;;;;;;;;;;5115611;28;20028;-58
2023/07/16 10:17:57;;;;;;;3.27;2.20;;;;;;;;;;5115627;28;20460;-58
2023/07/16 10:20:34;;;;;;;12.37;3.93;;;;;;;;;;5115326;28;20024;-58
2023/07/16 10:23:14;;;;;;;23.73;2.73;;;;;;;;;;5109759;28;20035;-58
2023/07/16 10:25:41;;;;;;;3.77;2.20;;;;;;;;;;5110174;28;20053;-58
2023/07/16 10:28:08;;;;;;;6.80;2.80;;;;;;;;;;5109843;28;20016;-58
2023/07/16 10:30:35;;;;;;;3.90;2.53;;;;;;;;;;5109845;28;20035;-59
2023/07/16 10:33:12;;;;;;;8.63;2.83;;;;;;;;;;5113566;28;20031;-58
2023/07/16 10:35:42;;;;;;;2.77;1.60;;;;;;;;;;5115032;28;20420;-58
2023/07/16 10:38:08;;;;;;;11.50;2.50;;;;;;;;;;5115058;28;20099;-59
2023/07/16 10:40:40;;;;;;;3.63;1.93;;;;;;;;;;5114915;28;20019;-58
2023/07/16 10:43:07;;;;;;;5.20;3.13;;;;;;;;;;5114381;28;20455;-58
2023/07/16 10:45:34;;;;;;;5.87;2.70;;;;;;;;;;5109263;28;20058;-58
2023/07/16 10:48:01;;;;;;;4.67;3.00;;;;;;;;;;5109721;28;20023;-58
2023/07/16 10:50:28;;;;;;;4.57;2.67;;;;;;;;;;5109483;28;20019;-58
2023/07/16 10:52:55;;;;;;;3.47;2.40;;;;;;;;;;5109337;28;20046;-58
2023/07/16 10:55:22;;;;;;;7.77;2.90;;;;;;;;;;5114602;28;20030;-58
2023/07/16 10:57:49;;;;;;;14.17;2.67;;;;;;;;;;5114752;28;20031;-58
2023/07/16 11:00:16;;;;;;;18.70;3.00;;;;;;;;;;5114616;28;20374;-58
2023/07/16 11:02:44;;;;;;;6.77;2.47;;;;;;;;;;5114550;28;20052;-59
2023/07/16 11:05:14;;;;;;;3.70;2.63;;;;;;;;;;5114546;28;20034;-58
2023/07/16 11:07:44;;;;;;;8.10;2.50;;;;;;;;;;5109001;28;20080;-58
2023/07/16 11:10:11;;;;;;;3.97;2.47;;;;;;;;;;5109111;28;20027;-58
2023/07/16 11:12:39;;;;;;;5.97;2.90;;;;;;;;;;5109012;28;20199;-59
2023/07/16 11:15:06;;;;;;;2.67;2.10;;;;;;;;;;5108542;28;20472;-58
2023/07/16 11:17:33;;;;;;;4.37;2.53;;;;;;;;;;5113854;28;20027;-58
2023/07/16 11:20:02;;;;;;;8.77;2.60;;;;;;;;;;5114268;28;20034;-58
2023/07/16 11:22:29;;;;;;;3.03;2.20;;;;;;;;;;5114286;28;20099;-59
2023/07/16 11:24:56;;;;;;;3.93;2.20;;;;;;;;;;5114225;28;20032;-58
2023/07/16 11:27:26;;;;;;;4.17;2.67;;;;;;;;;;5114062;28;20030;-56
2023/07/16 11:29:58;;;;;;;8.77;2.63;;;;;;;;;;5108716;28;20024;-56
2023/07/16 11:32:28;;;;;;;3.20;2.43;;;;;;;;;;5108621;28;20027;-56
2023/07/16 11:34:58;;;;;;;3.50;2.23;;;;;;;;;;5108598;28;20023;-56
2023/07/16 11:37:26;;;;;;;2.53;2.00;;;;;;;;;;5108410;28;20028;-57
2023/07/16 11:39:57;;;;;;;4.13;2.43;;;;;;;;;;5113444;28;20036;-56
2023/07/16 11:42:24;;;;;;;3.33;2.03;;;;;;;;;;5113610;28;20478;-56
2023/07/16 11:44:51;;;;;;;3.27;2.43;;;;;;;;;;5113209;28;20058;-56
2023/07/16 11:47:18;;;;;;;6.10;2.40;;;;;;;;;;5113723;28;20068;-57
2023/07/16 11:49:45;;;;;;;2.97;1.60;;;;;;;;;;5113517;28;20051;-56
2023/07/16 11:52:12;;;;;;;6.57;3.33;;;;;;;;;;5108138;28;20076;-57
2023/07/16 11:54:38;;;;;;;5.77;2.67;;;;;;;;;;5108267;28;20054;-56
2023/07/16 11:57:05;;;;;;;4.37;2.47;;;;;;;;;;5108210;28;20023;-56
2023/07/16 11:59:32;;;;;;;5.10;2.77;;;;;;;;;;5108127;28;20019;-56
2023/07/16 12:02:00;;;;;;;7.97;3.10;;;;;;;;;;5112375;28;20027;-57
2023/07/16 12:04:27;;;;;;;4.43;2.53;;;;;;;;;;5113602;28;21161;-56
2023/07/16 12:06:53;;;;;;;4.10;2.83;;;;;;;;;;5113126;28;20028;-56
2023/07/16 12:09:20;;;;;;;3.63;2.53;;;;;;;;;;5113459;28;20485;-56
2023/07/16 12:11:47;;;;;;;3.57;2.30;;;;;;;;;;5113282;28;20112;-56
2023/07/16 12:14:14;;;;;;;4.90;2.60;;;;;;;;;;5108164;28;20031;-56
2023/07/16 12:16:40;;;;;;;3.60;2.43;;;;;;;;;;5107683;28;20020;-57
2023/07/16 12:19:08;;;;;;;2.70;1.73;;;;;;;;;;5107387;28;20037;-56
2023/07/16 12:21:35;;;;;;;3.73;2.03;;;;;;;;;;5107756;28;20023;-56
2023/07/16 12:24:02;;;;;;;3.13;2.23;;;;;;;;;;5111609;28;20031;-56
2023/07/16 12:26:29;;;;;;;2.17;1.97;;;;;;;;;;5113291;28;20023;-56
2023/07/16 12:28:56;;;;;;;5.93;3.50;;;;;;;;;;5112672;28;20057;-56
2023/07/16 12:31:22;;;;;;;4.50;2.43;;;;;;;;;;5112910;28;20031;-56
2023/07/16 12:33:49;;;;;;;6.57;3.27;;;;;;;;;;5112735;28;20649;-56
2023/07/16 12:36:16;;;;;;;4.10;2.60;;;;;;;;;;5108352;28;20030;-56
2023/07/16 12:38:43;;;;;;;4.17;2.33;;;;;;;;;;5107393;28;20062;-56
2023/07/16 12:41:10;;;;;;;6.77;2.53;;;;;;;;;;5107340;28;20052;-56
2023/07/16 12:43:36;;;;;;;13.10;2.97;;;;;;;;;;5107398;28;20088;-56
2023/07/16 12:46:04;;;;;;;6.40;2.90;;;;;;;;;;5110935;28;20036;-56
2023/07/16 12:48:31;;;;;;;17.77;2.80;;;;;;;;;;5112560;28;20042;-56
2023/07/16 12:50:58;;;;;;;7.40;2.83;;;;;;;;;;5112326;28;20031;-56
2023/07/16 12:53:25;;;;;;;4.43;2.13;;;;;;;;;;5112647;28;20111;-56
2023/07/16 12:55:52;;;;;;;5.50;2.87;;;;;;;;;;5112244;28;20024;-56
2023/07/16 12:58:19;;;;;;;8.97;3.40;;;;;;;;;;5108644;28;20085;-56
2023/07/16 13:00:46;;;;;;;2.80;2.40;;;;;;;;;;5107257;28;20031;-56
2023/07/16 13:03:16;;;;;;;2.47;1.83;;;;;;;;;;5107168;28;20111;-56
2023/07/16 13:05:43;;;;;;;8.13;3.37;;;;;;;;;;5107093;28;20038;-57
2023/07/16 13:08:10;;;;;;;6.57;3.27;;;;;;;;;;5110175;28;20024;-56
2023/07/16 13:10:37;;;;;;;3.87;2.17;;;;;;;;;;5112658;28;20023;-56
2023/07/16 13:13:04;;;;;;;7.63;3.17;;;;;;;;;;5112487;28;20027;-56
2023/07/16 13:15:31;;;;;;;4.90;2.83;;;;;;;;;;5112519;28;20024;-56
2023/07/16 13:17:58;;;;;;;6.03;3.10;;;;;;;;;;5112433;28;20096;-56
2023/07/16 13:20:24;;;;;;;3.23;2.43;;;;;;;;;;5109139;28;20370;-56
2023/07/16 13:22:52;;;;;;;5.63;2.90;;;;;;;;;;5106487;28;20016;-56
2023/07/16 13:25:19;;;;;;;22.13;3.23;;;;;;;;;;5106885;28;20490;-56
2023/07/16 13:27:46;;;;;;;6.27;3.43;;;;;;;;;;5107023;28;20023;-56
2023/07/16 13:30:13;;;;;;;5.77;2.40;;;;;;;;;;5109577;28;20035;-56
2023/07/16 13:32:40;;;;;;;4.20;2.57;;;;;;;;;;5111999;28;20028;-56
2023/07/16 13:35:07;;;;;;;4.63;2.50;;;;;;;;;;5112335;28;20019;-56
2023/07/16 13:37:34;;;;;;;6.47;2.10;;;;;;;;;;5112216;28;20027;-57
2023/07/16 13:40:01;;;;;;;4.13;2.27;;;;;;;;;;5112082;28;20070;-56
2023/07/16 13:42:27;;;;;;;26.63;2.60;;;;;;;;;;5108977;28;20038;-56
2023/07/16 13:44:54;;;;;;;9.97;3.00;;;;;;;;;;5106756;28;20058;-56
2023/07/16 13:47:21;;;;;;;6.80;2.97;;;;;;;;;;5106500;28;20088;-56
2023/07/16 13:49:48;;;;;;;3.53;2.43;;;;;;;;;;5106710;28;20034;-56
2023/07/16 13:52:15;;;;;;;5.50;2.87;;;;;;;;;;5109128;28;20373;-56
2023/07/16 13:54:41;;;;;;;10.43;3.03;;;;;;;;;;5112565;28;20410;-56
2023/07/16 13:57:09;;;;;;;5.30;2.07;;;;;;;;;;5111883;28;20351;-56
2023/07/16 13:59:35;;;;;;;5.57;2.30;;;;;;;;;;5112118;28;20035;-56
2023/07/16 14:02:03;;;;;;;4.17;2.03;;;;;;;;;;5112112;28;20030;-56
2023/07/16 14:04:30;;;;;;;6.93;3.23;;;;;;;;;;5109231;28;20020;-56
2023/07/16 14:06:56;;;;;;;6.83;2.77;;;;;;;;;;5106478;28;20042;-57
2023/07/16 14:09:23;;;;;;;10.63;2.50;;;;;;;;;;5109350;28;20032;-56
2023/07/16 14:11:50;;;;;;;8.73;2.53;;;;;;;;;;5110171;28;20107;-56
2023/07/16 14:14:17;;;;;;;6.00;3.27;;;;;;;;;;5112198;28;20034;-56
2023/07/16 14:16:44;;;;;;;4.97;2.57;;;;;;;;;;5115474;28;20028;-56
2023/07/16 14:19:14;;;;;;;4.30;2.53;;;;;;;;;;5115516;28;20483;-56
2023/07/16 14:21:41;;;;;;;12.33;3.43;;;;;;;;;;5115557;28;20031;-56
2023/07/16 14:24:07;;;;;;;2.07;1.60;;;;;;;;;;5115266;28;20019;-56
2023/07/16 14:26:34;;;;;;;4.07;1.83;;;;;;;;;;5113126;28;20031;-57
2023/07/16 14:29:01;;;;;;;2.17;1.57;;;;;;;;;;5109467;28;20083;-56
2023/07/16 14:31:28;;;;;;;7.13;3.17;;;;;;;;;;5109713;28;20016;-57
2023/07/16 14:33:54;;;;;;;3.97;2.93;;;;;;;;;;5109825;28;20031;-56
2023/07/16 14:36:24;;;;;;;6.67;3.03;;;;;;;;;;5111161;28;20102;-56
2023/07/16 14:38:51;;;;;;;4.37;2.67;;;;;;;;;;5115399;28;20027;-56
2023/07/16 14:41:18;;;;;;;10.20;2.57;;;;;;;;;;5114911;28;20474;-56
2023/07/16 14:43:49;;;;;;;3.50;1.80;;;;;;;;;;5114701;28;20464;-56